sensor_id;sensor_type;location;lat;lon;timestamp;P1;durP1;ratioP1;P2;durP2;ratioP2
84033;SDS011;74115;55.806;37.754;2024-01-10T00:01:34;3.83;;;1.45;;
84033;SDS011;74115;55.806;37.754;2024-01-10T00:04:00;2.00;;;1.00;;
84033;SDS011;74115;55.806;37.754;2024-01-10T00:06:26;1.90;;;1.20;;
84033;SDS011;74115;55.806;37.754;2024-01-10T00:08:52;1.95;;;0.98;;
84033;SDS011;74115;55.806;37.754;2024-01-10T00:11:18;1.95;;;1.23;;
84033;SDS011;74115;55.806;37.754;2024-01-10T00:13:44;1.70;;;0.93;;
84033;SDS011;74115;55.806;37.754;2024-01-10T00:16:12;1.33;;;0.82;;
84033;SDS011;74115;55.806;37.754;2024-01-10T00:18:39;2.38;;;0.98;;
84033;SDS011;74115;55.806;37.754;2024-01-10T00:21:05;1.50;;;0.82;;
84033;SDS011;74115;55.806;37.754;2024-01-10T00:23:32;1.67;;;0.73;;
84033;SDS011;74115;55.806;37.754;2024-01-10T00:25:57;2.70;;;1.30;;
84033;SDS011;74115;55.806;37.754;2024-01-10T00:28:23;2.05;;;0.73;;
84033;SDS011;74115;55.806;37.754;2024-01-10T00:30:49;2.85;;;1.05;;
84033;SDS011;74115;55.806;37.754;2024-01-10T00:33:15;1.13;;;0.93;;
84033;SDS011;74115;55.806;37.754;2024-01-10T00:35:43;1.88;;;1.20;;
84033;SDS011;74115;55.806;37.754;2024-01-10T00:38:14;1.58;;;1.20;;
84033;SDS011;74115;55.806;37.754;2024-01-10T00:40:40;1.05;;;0.63;;
84033;SDS011;74115;55.806;37.754;2024-01-10T00:43:06;1.20;;;0.70;;
84033;SDS011;74115;55.806;37.754;2024-01-10T00:45:31;1.00;;;0.70;;
84033;SDS011;74115;55.806;37.754;2024-01-10T00:47:57;1.42;;;0.88;;
84033;SDS011;74115;55.806;37.754;2024-01-10T00:50:23;1.80;;;0.63;;
84033;SDS011;74115;55.806;37.754;2024-01-10T00:52:49;1.80;;;0.75;;
84033;SDS011;74115;55.806;37.754;2024-01-10T00:55:14;1.02;;;0.68;;
84033;SDS011;74115;55.806;37.754;2024-01-10T00:57:40;1.13;;;0.85;;
84033;SDS011;74115;55.806;37.754;2024-01-10T01:00:07;2.28;;;0.90;;
84033;SDS011;74115;55.806;37.754;2024-01-10T01:02:33;2.63;;;0.90;;
84033;SDS011;74115;55.806;37.754;2024-01-10T01:04:59;2.80;;;0.93;;
84033;SDS011;74115;55.806;37.754;2024-01-10T01:07:25;2.00;;;1.23;;
84033;SDS011;74115;55.806;37.754;2024-01-10T01:09:51;1.30;;;0.80;;
84033;SDS011;74115;55.806;37.754;2024-01-10T01:12:17;2.25;;;1.38;;
84033;SDS011;74115;55.806;37.754;2024-01-10T01:14:43;2.83;;;1.33;;
84033;SDS011;74115;55.806;37.754;2024-01-10T01:17:08;1.98;;;1.02;;
84033;SDS011;74115;55.806;37.754;2024-01-10T01:19:36;3.50;;;1.08;;
84033;SDS011;74115;55.806;37.754;2024-01-10T01:22:02;2.75;;;1.38;;
84033;SDS011;74115;55.806;37.754;2024-01-10T01:24:28;1.80;;;1.30;;
84033;SDS011;74115;55.806;37.754;2024-01-10T01:26:54;1.58;;;1.00;;
84033;SDS011;74115;55.806;37.754;2024-01-10T01:29:20;2.35;;;0.90;;
84033;SDS011;74115;55.806;37.754;2024-01-10T01:31:45;6.88;;;0.75;;
84033;SDS011;74115;55.806;37.754;2024-01-10T01:34:12;2.05;;;1.00;;
84033;SDS011;74115;55.806;37.754;2024-01-10T01:36:37;1.02;;;0.63;;
84033;SDS011;74115;55.806;37.754;2024-01-10T01:39:03;2.38;;;0.93;;
84033;SDS011;74115;55.806;37.754;2024-01-10T01:41:29;0.98;;;0.55;;
84033;SDS011;74115;55.806;37.754;2024-01-10T01:43:54;2.10;;;0.50;;
84033;SDS011;74115;55.806;37.754;2024-01-10T01:46:20;0.65;;;0.45;;
84033;SDS011;74115;55.806;37.754;2024-01-10T01:48:47;0.95;;;0.52;;
84033;SDS011;74115;55.806;37.754;2024-01-10T01:51:12;0.90;;;0.52;;
84033;SDS011;74115;55.806;37.754;2024-01-10T01:53:39;1.58;;;0.80;;
84033;SDS011;74115;55.806;37.754;2024-01-10T01:56:06;1.00;;;0.30;;
84033;SDS011;74115;55.806;37.754;2024-01-10T01:58:32;6.75;;;0.80;;
84033;SDS011;74115;55.806;37.754;2024-01-10T02:00:59;1.02;;;0.40;;
84033;SDS011;74115;55.806;37.754;2024-01-10T02:03:25;0.52;;;0.47;;
84033;SDS011;74115;55.806;37.754;2024-01-10T02:05:51;0.43;;;0.30;;
84033;SDS011;74115;55.806;37.754;2024-01-10T02:08:17;1.70;;;0.45;;
84033;SDS011;74115;55.806;37.754;2024-01-10T02:10:43;0.60;;;0.30;;
84033;SDS011;74115;55.806;37.754;2024-01-10T02:13:09;0.80;;;0.57;;
84033;SDS011;74115;55.806;37.754;2024-01-10T02:15:37;0.38;;;0.30;;
84033;SDS011;74115;55.806;37.754;2024-01-10T02:18:23;0.60;;;0.30;;
84033;SDS011;74115;55.806;37.754;2024-01-10T02:20:49;0.50;;;0.30;;
84033;SDS011;74115;55.806;37.754;2024-01-10T02:23:15;0.57;;;0.32;;
84033;SDS011;74115;55.806;37.754;2024-01-10T02:25:43;0.77;;;0.40;;
84033;SDS011;74115;55.806;37.754;2024-01-10T02:28:10;1.25;;;0.30;;
84033;SDS011;74115;55.806;37.754;2024-01-10T02:30:36;0.45;;;0.40;;
84033;SDS011;74115;55.806;37.754;2024-01-10T02:33:03;0.70;;;0.47;;
84033;SDS011;74115;55.806;37.754;2024-01-10T02:35:29;1.08;;;0.32;;
84033;SDS011;74115;55.806;37.754;2024-01-10T02:37:58;1.17;;;1.05;;
84033;SDS011;74115;55.806;37.754;2024-01-10T02:40:24;0.70;;;0.40;;
84033;SDS011;74115;55.806;37.754;2024-01-10T02:42:51;0.80;;;0.47;;
84033;SDS011;74115;55.806;37.754;2024-01-10T02:45:17;0.88;;;0.45;;
84033;SDS011;74115;55.806;37.754;2024-01-10T02:47:43;0.65;;;0.52;;
84033;SDS011;74115;55.806;37.754;2024-01-10T02:50:09;1.98;;;1.08;;
84033;SDS011;74115;55.806;37.754;2024-01-10T02:52:35;1.25;;;0.63;;
84033;SDS011;74115;55.806;37.754;2024-01-10T02:55:01;0.85;;;0.55;;
84033;SDS011;74115;55.806;37.754;2024-01-10T02:57:27;2.85;;;1.48;;
84033;SDS011;74115;55.806;37.754;2024-01-10T02:59:53;1.42;;;1.00;;
84033;SDS011;74115;55.806;37.754;2024-01-10T03:02:18;2.17;;;1.30;;
84033;SDS011;74115;55.806;37.754;2024-01-10T03:04:44;3.78;;;1.88;;
84033;SDS011;74115;55.806;37.754;2024-01-10T03:07:10;2.03;;;1.15;;
84033;SDS011;74115;55.806;37.754;2024-01-10T03:09:36;2.10;;;1.27;;
84033;SDS011;74115;55.806;37.754;2024-01-10T03:12:01;2.45;;;1.17;;
84033;SDS011;74115;55.806;37.754;2024-01-10T03:14:27;3.22;;;1.60;;
84033;SDS011;74115;55.806;37.754;2024-01-10T03:16:53;4.82;;;2.22;;
84033;SDS011;74115;55.806;37.754;2024-01-10T03:19:19;5.20;;;2.63;;
84033;SDS011;74115;55.806;37.754;2024-01-10T03:21:45;3.72;;;1.42;;
84033;SDS011;74115;55.806;37.754;2024-01-10T03:24:10;9.13;;;4.32;;
84033;SDS011;74115;55.806;37.754;2024-01-10T03:26:36;6.95;;;4.15;;
84033;SDS011;74115;55.806;37.754;2024-01-10T03:29:02;6.47;;;3.90;;
84033;SDS011;74115;55.806;37.754;2024-01-10T03:31:29;6.65;;;3.63;;
84033;SDS011;74115;55.806;37.754;2024-01-10T03:33:58;5.45;;;3.60;;
84033;SDS011;74115;55.806;37.754;2024-01-10T03:36:24;6.40;;;4.15;;
84033;SDS011;74115;55.806;37.754;2024-01-10T03:38:50;8.35;;;5.07;;
84033;SDS011;74115;55.806;37.754;2024-01-10T03:41:17;11.93;;;5.60;;
84033;SDS011;74115;55.806;37.754;2024-01-10T03:43:43;10.70;;;4.35;;
84033;SDS011;74115;55.806;37.754;2024-01-10T03:46:10;6.00;;;3.80;;
84033;SDS011;74115;55.806;37.754;2024-01-10T03:48:36;9.75;;;4.78;;
84033;SDS011;74115;55.806;37.754;2024-01-10T03:51:02;11.70;;;5.05;;
84033;SDS011;74115;55.806;37.754;2024-01-10T03:53:28;8.00;;;4.03;;
84033;SDS011;74115;55.806;37.754;2024-01-10T03:55:55;14.07;;;6.00;;
84033;SDS011;74115;55.806;37.754;2024-01-10T03:58:20;9.73;;;4.85;;
84033;SDS011;74115;55.806;37.754;2024-01-10T04:00:47;7.97;;;4.38;;
84033;SDS011;74115;55.806;37.754;2024-01-10T04:03:13;8.68;;;4.05;;
84033;SDS011;74115;55.806;37.754;2024-01-10T04:05:39;6.50;;;2.72;;
84033;SDS011;74115;55.806;37.754;2024-01-10T04:08:05;8.93;;;3.97;;
84033;SDS011;74115;55.806;37.754;2024-01-10T04:10:31;6.63;;;4.32;;
84033;SDS011;74115;55.806;37.754;2024-01-10T04:12:56;7.80;;;3.55;;
84033;SDS011;74115;55.806;37.754;2024-01-10T04:15:23;9.63;;;4.10;;
84033;SDS011;74115;55.806;37.754;2024-01-10T04:17:48;9.05;;;5.32;;
84033;SDS011;74115;55.806;37.754;2024-01-10T04:20:14;9.30;;;5.50;;
84033;SDS011;74115;55.806;37.754;2024-01-10T04:22:40;5.18;;;3.05;;
84033;SDS011;74115;55.806;37.754;2024-01-10T04:25:06;8.43;;;4.38;;
84033;SDS011;74115;55.806;37.754;2024-01-10T04:27:33;8.73;;;5.75;;
84033;SDS011;74115;55.806;37.754;2024-01-10T04:29:58;8.57;;;4.18;;
84033;SDS011;74115;55.806;37.754;2024-01-10T04:32:24;11.40;;;4.75;;
84033;SDS011;74115;55.806;37.754;2024-01-10T04:34:50;12.65;;;5.22;;
84033;SDS011;74115;55.806;37.754;2024-01-10T04:37:16;8.77;;;4.55;;
84033;SDS011;74115;55.806;37.754;2024-01-10T04:39:42;8.50;;;4.80;;
84033;SDS011;74115;55.806;37.754;2024-01-10T04:42:10;4.38;;;2.63;;
84033;SDS011;74115;55.806;37.754;2024-01-10T04:44:37;9.52;;;5.05;;
84033;SDS011;74115;55.806;37.754;2024-01-10T04:47:03;6.40;;;3.35;;
84033;SDS011;74115;55.806;37.754;2024-01-10T04:49:29;7.45;;;4.13;;
84033;SDS011;74115;55.806;37.754;2024-01-10T04:51:55;9.50;;;4.53;;
84033;SDS011;74115;55.806;37.754;2024-01-10T04:54:21;5.03;;;2.92;;
84033;SDS011;74115;55.806;37.754;2024-01-10T04:56:46;4.63;;;3.70;;
84033;SDS011;74115;55.806;37.754;2024-01-10T04:59:12;4.65;;;2.78;;
84033;SDS011;74115;55.806;37.754;2024-01-10T05:01:38;5.18;;;3.47;;
84033;SDS011;74115;55.806;37.754;2024-01-10T05:04:04;7.93;;;3.60;;
84033;SDS011;74115;55.806;37.754;2024-01-10T05:06:29;7.28;;;3.28;;
84033;SDS011;74115;55.806;37.754;2024-01-10T05:08:56;4.93;;;2.80;;
84033;SDS011;74115;55.806;37.754;2024-01-10T05:11:24;7.40;;;4.22;;
84033;SDS011;74115;55.806;37.754;2024-01-10T05:13:51;8.65;;;4.47;;
84033;SDS011;74115;55.806;37.754;2024-01-10T05:16:18;9.55;;;3.90;;
84033;SDS011;74115;55.806;37.754;2024-01-10T05:18:44;6.57;;;3.40;;
84033;SDS011;74115;55.806;37.754;2024-01-10T05:21:10;7.47;;;2.95;;
84033;SDS011;74115;55.806;37.754;2024-01-10T05:23:35;10.55;;;3.95;;
84033;SDS011;74115;55.806;37.754;2024-01-10T05:26:04;10.20;;;4.15;;
84033;SDS011;74115;55.806;37.754;2024-01-10T05:28:29;6.65;;;2.90;;
84033;SDS011;74115;55.806;37.754;2024-01-10T05:30:55;6.53;;;2.55;;
84033;SDS011;74115;55.806;37.754;2024-01-10T05:33:21;7.82;;;3.00;;
84033;SDS011;74115;55.806;37.754;2024-01-10T05:35:47;5.90;;;2.70;;
84033;SDS011;74115;55.806;37.754;2024-01-10T05:38:13;6.63;;;3.83;;
84033;SDS011;74115;55.806;37.754;2024-01-10T05:40:39;7.15;;;3.47;;
84033;SDS011;74115;55.806;37.754;2024-01-10T05:43:05;6.97;;;3.90;;
84033;SDS011;74115;55.806;37.754;2024-01-10T05:45:32;7.30;;;3.78;;
84033;SDS011;74115;55.806;37.754;2024-01-10T05:47:58;5.70;;;3.15;;
84033;SDS011;74115;55.806;37.754;2024-01-10T05:50:24;1.98;;;1.40;;
84033;SDS011;74115;55.806;37.754;2024-01-10T05:52:50;5.90;;;3.40;;
84033;SDS011;74115;55.806;37.754;2024-01-10T05:55:16;5.72;;;3.28;;
84033;SDS011;74115;55.806;37.754;2024-01-10T05:57:41;8.77;;;3.88;;
84033;SDS011;74115;55.806;37.754;2024-01-10T06:00:07;6.88;;;3.65;;
84033;SDS011;74115;55.806;37.754;2024-01-10T06:02:37;6.45;;;4.07;;
84033;SDS011;74115;55.806;37.754;2024-01-10T06:05:05;6.57;;;3.95;;
84033;SDS011;74115;55.806;37.754;2024-01-10T06:07:38;6.65;;;3.42;;
84033;SDS011;74115;55.806;37.754;2024-01-10T06:10:04;6.35;;;3.05;;
84033;SDS011;74115;55.806;37.754;2024-01-10T06:12:31;5.40;;;2.58;;
84033;SDS011;74115;55.806;37.754;2024-01-10T06:14:57;6.78;;;3.50;;
84033;SDS011;74115;55.806;37.754;2024-01-10T06:17:23;4.85;;;2.28;;
84033;SDS011;74115;55.806;37.754;2024-01-10T06:19:49;2.95;;;1.83;;
84033;SDS011;74115;55.806;37.754;2024-01-10T06:22:15;5.00;;;1.98;;
84033;SDS011;74115;55.806;37.754;2024-01-10T06:24:45;5.32;;;3.45;;
84033;SDS011;74115;55.806;37.754;2024-01-10T06:27:10;5.43;;;2.90;;
84033;SDS011;74115;55.806;37.754;2024-01-10T06:29:39;7.05;;;3.17;;
84033;SDS011;74115;55.806;37.754;2024-01-10T06:32:05;1.50;;;0.88;;
84033;SDS011;74115;55.806;37.754;2024-01-10T06:34:32;3.10;;;1.35;;
84033;SDS011;74115;55.806;37.754;2024-01-10T06:36:59;4.60;;;2.72;;
84033;SDS011;74115;55.806;37.754;2024-01-10T06:39:25;4.75;;;3.05;;
84033;SDS011;74115;55.806;37.754;2024-01-10T06:41:51;3.97;;;1.90;;
84033;SDS011;74115;55.806;37.754;2024-01-10T06:44:16;4.25;;;1.65;;
84033;SDS011;74115;55.806;37.754;2024-01-10T06:46:45;2.88;;;1.63;;
84033;SDS011;74115;55.806;37.754;2024-01-10T06:49:11;2.78;;;1.02;;
84033;SDS011;74115;55.806;37.754;2024-01-10T06:51:37;2.35;;;2.10;;
84033;SDS011;74115;55.806;37.754;2024-01-10T06:54:03;2.38;;;2.17;;
84033;SDS011;74115;55.806;37.754;2024-01-10T06:56:32;5.25;;;2.03;;
84033;SDS011;74115;55.806;37.754;2024-01-10T06:58:59;4.15;;;1.27;;
84033;SDS011;74115;55.806;37.754;2024-01-10T07:01:26;4.88;;;1.73;;
84033;SDS011;74115;55.806;37.754;2024-01-10T07:03:52;4.93;;;2.25;;
84033;SDS011;74115;55.806;37.754;2024-01-10T07:06:20;4.90;;;3.08;;
84033;SDS011;74115;55.806;37.754;2024-01-10T07:08:47;4.13;;;2.25;;
84033;SDS011;74115;55.806;37.754;2024-01-10T07:11:14;7.32;;;2.90;;
84033;SDS011;74115;55.806;37.754;2024-01-10T07:13:40;7.53;;;2.83;;
84033;SDS011;74115;55.806;37.754;2024-01-10T07:16:07;4.43;;;2.55;;
84033;SDS011;74115;55.806;37.754;2024-01-10T07:18:33;3.95;;;1.90;;
84033;SDS011;74115;55.806;37.754;2024-01-10T07:20:59;2.75;;;1.50;;
84033;SDS011;74115;55.806;37.754;2024-01-10T07:23:25;6.13;;;2.88;;
84033;SDS011;74115;55.806;37.754;2024-01-10T07:25:51;2.88;;;2.47;;
84033;SDS011;74115;55.806;37.754;2024-01-10T07:28:17;4.45;;;2.13;;
84033;SDS011;74115;55.806;37.754;2024-01-10T07:30:44;3.20;;;2.13;;
84033;SDS011;74115;55.806;37.754;2024-01-10T07:33:10;3.95;;;2.47;;
84033;SDS011;74115;55.806;37.754;2024-01-10T07:35:36;2.80;;;1.80;;
84033;SDS011;74115;55.806;37.754;2024-01-10T07:38:03;4.95;;;1.83;;
84033;SDS011;74115;55.806;37.754;2024-01-10T07:40:33;3.55;;;1.77;;
84033;SDS011;74115;55.806;37.754;2024-01-10T07:42:59;5.30;;;2.40;;
84033;SDS011;74115;55.806;37.754;2024-01-10T07:45:25;5.32;;;2.75;;
84033;SDS011;74115;55.806;37.754;2024-01-10T07:47:51;3.00;;;1.63;;
84033;SDS011;74115;55.806;37.754;2024-01-10T07:50:16;5.47;;;2.35;;
84033;SDS011;74115;55.806;37.754;2024-01-10T07:52:43;2.90;;;2.10;;
84033;SDS011;74115;55.806;37.754;2024-01-10T07:55:09;12.32;;;2.78;;
84033;SDS011;74115;55.806;37.754;2024-01-10T07:57:35;4.55;;;2.33;;
84033;SDS011;74115;55.806;37.754;2024-01-10T08:00:02;6.95;;;2.15;;
84033;SDS011;74115;55.806;37.754;2024-01-10T08:02:33;6.28;;;2.17;;
84033;SDS011;74115;55.806;37.754;2024-01-10T08:05:02;3.85;;;2.38;;
84033;SDS011;74115;55.806;37.754;2024-01-10T08:07:34;2.40;;;1.88;;
84033;SDS011;74115;55.806;37.754;2024-01-10T08:10:06;2.20;;;1.30;;
84033;SDS011;74115;55.806;37.754;2024-01-10T08:12:33;4.00;;;1.58;;
84033;SDS011;74115;55.806;37.754;2024-01-10T08:14:58;5.85;;;2.70;;
84033;SDS011;74115;55.806;37.754;2024-01-10T08:17:24;4.60;;;2.53;;
84033;SDS011;74115;55.806;37.754;2024-01-10T08:19:50;4.43;;;2.55;;
84033;SDS011;74115;55.806;37.754;2024-01-10T08:22:17;5.57;;;2.88;;
84033;SDS011;74115;55.806;37.754;2024-01-10T08:24:45;6.68;;;2.10;;
84033;SDS011;74115;55.806;37.754;2024-01-10T08:27:11;3.83;;;2.08;;
84033;SDS011;74115;55.806;37.754;2024-01-10T08:29:37;4.95;;;2.08;;
84033;SDS011;74115;55.806;37.754;2024-01-10T08:32:03;1.80;;;1.13;;
84033;SDS011;74115;55.806;37.754;2024-01-10T08:34:29;6.38;;;2.45;;
84033;SDS011;74115;55.806;37.754;2024-01-10T08:36:55;3.70;;;2.17;;
84033;SDS011;74115;55.806;37.754;2024-01-10T08:39:21;2.45;;;1.83;;
84033;SDS011;74115;55.806;37.754;2024-01-10T08:41:51;4.78;;;1.80;;
84033;SDS011;74115;55.806;37.754;2024-01-10T08:44:18;7.88;;;4.18;;
84033;SDS011;74115;55.806;37.754;2024-01-10T08:46:43;6.85;;;2.80;;
84033;SDS011;74115;55.806;37.754;2024-01-10T08:49:09;8.38;;;2.72;;
84033;SDS011;74115;55.806;37.754;2024-01-10T08:51:35;3.97;;;2.50;;
84033;SDS011;74115;55.806;37.754;2024-01-10T08:54:01;6.70;;;3.42;;
84033;SDS011;74115;55.806;37.754;2024-01-10T08:56:27;4.05;;;1.15;;
84033;SDS011;74115;55.806;37.754;2024-01-10T08:58:52;5.18;;;1.90;;
84033;SDS011;74115;55.806;37.754;2024-01-10T09:01:18;2.80;;;1.67;;
84033;SDS011;74115;55.806;37.754;2024-01-10T09:03:44;4.65;;;2.15;;
84033;SDS011;74115;55.806;37.754;2024-01-10T09:06:11;5.10;;;2.20;;
84033;SDS011;74115;55.806;37.754;2024-01-10T09:08:37;5.80;;;2.00;;
84033;SDS011;74115;55.806;37.754;2024-01-10T09:11:04;2.90;;;1.98;;
84033;SDS011;74115;55.806;37.754;2024-01-10T09:13:30;4.65;;;1.98;;
84033;SDS011;74115;55.806;37.754;2024-01-10T09:15:56;4.57;;;1.98;;
84033;SDS011;74115;55.806;37.754;2024-01-10T09:18:22;3.45;;;1.77;;
84033;SDS011;74115;55.806;37.754;2024-01-10T09:20:47;2.67;;;1.48;;
84033;SDS011;74115;55.806;37.754;2024-01-10T09:23:13;4.80;;;1.42;;
84033;SDS011;74115;55.806;37.754;2024-01-10T09:25:39;5.10;;;2.05;;
84033;SDS011;74115;55.806;37.754;2024-01-10T09:28:05;3.30;;;1.60;;
84033;SDS011;74115;55.806;37.754;2024-01-10T09:30:31;6.82;;;2.92;;
84033;SDS011;74115;55.806;37.754;2024-01-10T09:32:57;5.22;;;3.42;;
84033;SDS011;74115;55.806;37.754;2024-01-10T09:35:24;4.93;;;2.63;;
84033;SDS011;74115;55.806;37.754;2024-01-10T09:37:50;8.60;;;2.97;;
84033;SDS011;74115;55.806;37.754;2024-01-10T09:40:16;3.65;;;1.67;;
84033;SDS011;74115;55.806;37.754;2024-01-10T09:42:45;4.93;;;1.67;;
84033;SDS011;74115;55.806;37.754;2024-01-10T09:45:14;5.00;;;1.48;;
84033;SDS011;74115;55.806;37.754;2024-01-10T09:47:41;3.17;;;1.67;;
84033;SDS011;74115;55.806;37.754;2024-01-10T09:50:08;2.20;;;1.48;;
84033;SDS011;74115;55.806;37.754;2024-01-10T09:52:44;7.18;;;1.55;;
84033;SDS011;74115;55.806;37.754;2024-01-10T09:55:16;2.15;;;1.23;;
84033;SDS011;74115;55.806;37.754;2024-01-10T09:57:41;4.50;;;2.38;;
84033;SDS011;74115;55.806;37.754;2024-01-10T10:00:08;2.67;;;2.13;;
84033;SDS011;74115;55.806;37.754;2024-01-10T10:02:36;4.22;;;2.47;;
84033;SDS011;74115;55.806;37.754;2024-01-10T10:05:05;4.35;;;1.98;;
84033;SDS011;74115;55.806;37.754;2024-01-10T10:10:12;1.50;;;0.98;;
84033;SDS011;74115;55.806;37.754;2024-01-10T10:12:43;2.33;;;1.88;;
84033;SDS011;74115;55.806;37.754;2024-01-10T10:15:13;2.63;;;2.10;;
84033;SDS011;74115;55.806;37.754;2024-01-10T10:17:42;3.13;;;1.80;;
84033;SDS011;74115;55.806;37.754;2024-01-10T10:20:13;2.20;;;1.10;;
84033;SDS011;74115;55.806;37.754;2024-01-10T10:25:30;4.68;;;2.53;;
84033;SDS011;74115;55.806;37.754;2024-01-10T10:27:58;3.97;;;2.15;;
84033;SDS011;74115;55.806;37.754;2024-01-10T10:30:24;5.15;;;2.28;;
84033;SDS011;74115;55.806;37.754;2024-01-10T10:32:49;3.83;;;1.65;;
84033;SDS011;74115;55.806;37.754;2024-01-10T10:35:15;11.20;;;2.63;;
84033;SDS011;74115;55.806;37.754;2024-01-10T10:40:09;2.60;;;1.85;;
84033;SDS011;74115;55.806;37.754;2024-01-10T10:42:37;4.45;;;1.83;;
84033;SDS011;74115;55.806;37.754;2024-01-10T10:45:06;2.53;;;2.13;;
84033;SDS011;74115;55.806;37.754;2024-01-10T10:47:35;2.83;;;1.65;;
84033;SDS011;74115;55.806;37.754;2024-01-10T10:50:02;4.22;;;1.88;;
84033;SDS011;74115;55.806;37.754;2024-01-10T10:52:29;9.63;;;3.38;;
84033;SDS011;74115;55.806;37.754;2024-01-10T10:54:56;3.10;;;2.30;;
84033;SDS011;74115;55.806;37.754;2024-01-10T10:57:22;3.40;;;2.22;;
84033;SDS011;74115;55.806;37.754;2024-01-10T10:59:53;2.55;;;1.63;;
84033;SDS011;74115;55.806;37.754;2024-01-10T11:02:21;2.03;;;1.23;;
84033;SDS011;74115;55.806;37.754;2024-01-10T11:04:50;4.85;;;2.30;;
84033;SDS011;74115;55.806;37.754;2024-01-10T11:07:16;6.07;;;2.35;;
84033;SDS011;74115;55.806;37.754;2024-01-10T11:09:42;2.90;;;1.58;;
84033;SDS011;74115;55.806;37.754;2024-01-10T11:12:16;7.70;;;2.00;;
84033;SDS011;74115;55.806;37.754;2024-01-10T11:15:01;6.75;;;2.38;;
84033;SDS011;74115;55.806;37.754;2024-01-10T11:25:20;3.40;;;1.67;;
84033;SDS011;74115;55.806;37.754;2024-01-10T11:27:45;2.83;;;1.95;;
84033;SDS011;74115;55.806;37.754;2024-01-10T11:30:12;3.60;;;1.42;;
84033;SDS011;74115;55.806;37.754;2024-01-10T11:32:38;7.53;;;3.33;;
84033;SDS011;74115;55.806;37.754;2024-01-10T11:35:04;4.13;;;2.30;;
84033;SDS011;74115;55.806;37.754;2024-01-10T11:37:41;2.60;;;1.60;;
84033;SDS011;74115;55.806;37.754;2024-01-10T11:40:08;5.03;;;2.10;;
84033;SDS011;74115;55.806;37.754;2024-01-10T11:42:44;5.57;;;3.03;;
84033;SDS011;74115;55.806;37.754;2024-01-10T11:47:55;3.28;;;1.50;;
84033;SDS011;74115;55.806;37.754;2024-01-10T11:50:21;2.33;;;1.70;;
84033;SDS011;74115;55.806;37.754;2024-01-10T11:52:52;3.85;;;1.67;;
84033;SDS011;74115;55.806;37.754;2024-01-10T11:58:23;3.58;;;2.22;;
84033;SDS011;74115;55.806;37.754;2024-01-10T12:00:49;6.68;;;3.28;;
84033;SDS011;74115;55.806;37.754;2024-01-10T12:03:14;3.45;;;2.75;;
84033;SDS011;74115;55.806;37.754;2024-01-10T12:06:00;4.85;;;2.60;;
84033;SDS011;74115;55.806;37.754;2024-01-10T12:08:27;6.68;;;2.65;;
84033;SDS011;74115;55.806;37.754;2024-01-10T12:10:53;4.43;;;3.60;;
84033;SDS011;74115;55.806;37.754;2024-01-10T12:13:18;10.70;;;3.83;;
84033;SDS011;74115;55.806;37.754;2024-01-10T12:15:44;5.82;;;3.13;;
84033;SDS011;74115;55.806;37.754;2024-01-10T12:18:10;4.35;;;3.17;;
84033;SDS011;74115;55.806;37.754;2024-01-10T12:20:36;6.22;;;3.13;;
84033;SDS011;74115;55.806;37.754;2024-01-10T12:23:03;7.35;;;3.63;;
84033;SDS011;74115;55.806;37.754;2024-01-10T12:25:29;4.80;;;2.28;;
84033;SDS011;74115;55.806;37.754;2024-01-10T12:27:55;2.97;;;2.33;;
84033;SDS011;74115;55.806;37.754;2024-01-10T12:30:20;4.40;;;2.70;;
84033;SDS011;74115;55.806;37.754;2024-01-10T12:32:50;4.72;;;3.70;;
84033;SDS011;74115;55.806;37.754;2024-01-10T12:35:15;4.85;;;2.65;;
84033;SDS011;74115;55.806;37.754;2024-01-10T12:37:53;2.97;;;2.03;;
84033;SDS011;74115;55.806;37.754;2024-01-10T12:40:21;7.78;;;2.85;;
84033;SDS011;74115;55.806;37.754;2024-01-10T12:42:47;4.30;;;0.88;;
84033;SDS011;74115;55.806;37.754;2024-01-10T12:45:22;5.43;;;3.17;;
84033;SDS011;74115;55.806;37.754;2024-01-10T12:47:49;7.07;;;2.90;;
84033;SDS011;74115;55.806;37.754;2024-01-10T12:50:14;5.97;;;2.65;;
84033;SDS011;74115;55.806;37.754;2024-01-10T12:52:40;5.60;;;2.58;;
84033;SDS011;74115;55.806;37.754;2024-01-10T12:55:08;3.67;;;2.72;;
84033;SDS011;74115;55.806;37.754;2024-01-10T12:57:35;5.07;;;2.05;;
84033;SDS011;74115;55.806;37.754;2024-01-10T13:00:00;4.95;;;2.08;;
84033;SDS011;74115;55.806;37.754;2024-01-10T13:02:32;10.57;;;3.63;;
84033;SDS011;74115;55.806;37.754;2024-01-10T13:05:03;4.00;;;2.90;;
84033;SDS011;74115;55.806;37.754;2024-01-10T13:07:31;11.05;;;2.65;;
84033;SDS011;74115;55.806;37.754;2024-01-10T13:09:59;3.78;;;2.63;;
84033;SDS011;74115;55.806;37.754;2024-01-10T13:12:25;10.57;;;3.83;;
84033;SDS011;74115;55.806;37.754;2024-01-10T13:14:51;4.82;;;3.33;;
84033;SDS011;74115;55.806;37.754;2024-01-10T13:17:16;2.78;;;1.40;;
84033;SDS011;74115;55.806;37.754;2024-01-10T13:19:42;4.80;;;2.38;;
84033;SDS011;74115;55.806;37.754;2024-01-10T13:22:13;6.32;;;2.50;;
84033;SDS011;74115;55.806;37.754;2024-01-10T13:24:41;5.93;;;2.40;;
84033;SDS011;74115;55.806;37.754;2024-01-10T13:27:07;2.60;;;2.40;;
84033;SDS011;74115;55.806;37.754;2024-01-10T13:29:35;2.88;;;1.73;;
84033;SDS011;74115;55.806;37.754;2024-01-10T13:32:03;5.10;;;3.03;;
84033;SDS011;74115;55.806;37.754;2024-01-10T13:34:30;3.05;;;2.20;;
84033;SDS011;74115;55.806;37.754;2024-01-10T13:36:55;5.35;;;2.72;;
84033;SDS011;74115;55.806;37.754;2024-01-10T13:39:23;1.92;;;1.67;;
84033;SDS011;74115;55.806;37.754;2024-01-10T13:41:49;4.88;;;3.00;;
84033;SDS011;74115;55.806;37.754;2024-01-10T13:44:15;4.07;;;3.72;;
84033;SDS011;74115;55.806;37.754;2024-01-10T13:46:41;7.22;;;3.08;;
84033;SDS011;74115;55.806;37.754;2024-01-10T13:49:07;3.80;;;2.95;;
84033;SDS011;74115;55.806;37.754;2024-01-10T13:51:33;2.03;;;1.38;;
84033;SDS011;74115;55.806;37.754;2024-01-10T13:53:58;3.45;;;3.03;;
84033;SDS011;74115;55.806;37.754;2024-01-10T13:56:24;3.38;;;3.05;;
84033;SDS011;74115;55.806;37.754;2024-01-10T13:58:53;3.17;;;2.05;;
84033;SDS011;74115;55.806;37.754;2024-01-10T14:01:19;2.17;;;1.67;;
84033;SDS011;74115;55.806;37.754;2024-01-10T14:03:44;6.53;;;2.03;;
84033;SDS011;74115;55.806;37.754;2024-01-10T14:06:10;4.35;;;3.38;;
84033;SDS011;74115;55.806;37.754;2024-01-10T14:08:42;6.25;;;1.67;;
84033;SDS011;74115;55.806;37.754;2024-01-10T14:11:10;4.40;;;2.45;;
84033;SDS011;74115;55.806;37.754;2024-01-10T14:13:39;6.53;;;3.40;;
84033;SDS011;74115;55.806;37.754;2024-01-10T14:16:05;3.60;;;3.13;;
84033;SDS011;74115;55.806;37.754;2024-01-10T14:18:31;11.93;;;3.70;;
84033;SDS011;74115;55.806;37.754;2024-01-10T14:21:00;4.15;;;2.65;;
84033;SDS011;74115;55.806;37.754;2024-01-10T14:23:26;2.65;;;1.50;;
84033;SDS011;74115;55.806;37.754;2024-01-10T14:25:52;6.07;;;2.25;;
84033;SDS011;74115;55.806;37.754;2024-01-10T14:28:18;3.58;;;2.97;;
84033;SDS011;74115;55.806;37.754;2024-01-10T14:30:46;5.13;;;3.15;;
84033;SDS011;74115;55.806;37.754;2024-01-10T14:33:13;4.25;;;1.95;;
84033;SDS011;74115;55.806;37.754;2024-01-10T14:35:39;5.53;;;2.55;;
84033;SDS011;74115;55.806;37.754;2024-01-10T14:38:05;4.18;;;2.08;;
84033;SDS011;74115;55.806;37.754;2024-01-10T14:40:31;3.22;;;2.50;;
84033;SDS011;74115;55.806;37.754;2024-01-10T14:42:57;3.40;;;2.60;;
84033;SDS011;74115;55.806;37.754;2024-01-10T14:45:25;6.10;;;3.10;;
84033;SDS011;74115;55.806;37.754;2024-01-10T14:47:51;7.00;;;2.97;;
84033;SDS011;74115;55.806;37.754;2024-01-10T14:50:17;6.25;;;3.00;;
84033;SDS011;74115;55.806;37.754;2024-01-10T14:52:43;5.32;;;3.13;;